sensor_id;sensor_type;location;lat;lon;timestamp;P1;durP1;ratioP1;P2;durP2;ratioP2
10651;SDS011;5374;42.742;23.266;2023-04-03T00:00:59;11.17;;;6.80;;
10651;SDS011;5374;42.742;23.266;2023-04-03T00:03:47;5.40;;;4.77;;
10651;SDS011;5374;42.742;23.266;2023-04-03T00:06:35;6.33;;;4.33;;
10651;SDS011;5374;42.742;23.266;2023-04-03T00:09:22;7.33;;;5.40;;
10651;SDS011;5374;42.742;23.266;2023-04-03T00:12:09;8.93;;;5.60;;
10651;SDS011;5374;42.742;23.266;2023-04-03T00:14:57;8.00;;;5.37;;
10651;SDS011;5374;42.742;23.266;2023-04-03T00:17:44;7.33;;;5.43;;
10651;SDS011;5374;42.742;23.266;2023-04-03T00:20:33;12.93;;;7.90;;
10651;SDS011;5374;42.742;23.266;2023-04-03T00:23:20;13.20;;;9.10;;
10651;SDS011;5374;42.742;23.266;2023-04-03T00:26:09;9.83;;;6.80;;
10651;SDS011;5374;42.742;23.266;2023-04-03T00:28:56;18.53;;;9.63;;
10651;SDS011;5374;42.742;23.266;2023-04-03T00:31:43;235.90;;;85.37;;
10651;SDS011;5374;42.742;23.266;2023-04-03T00:34:30;142.80;;;51.63;;
10651;SDS011;5374;42.742;23.266;2023-04-03T00:37:19;339.00;;;141.93;;
10651;SDS011;5374;42.742;23.266;2023-04-03T00:40:07;159.83;;;72.93;;
10651;SDS011;5374;42.742;23.266;2023-04-03T00:42:56;132.13;;;59.10;;
10651;SDS011;5374;42.742;23.266;2023-04-03T00:45:46;136.10;;;62.43;;
10651;SDS011;5374;42.742;23.266;2023-04-03T00:48:35;167.03;;;78.10;;
10651;SDS011;5374;42.742;23.266;2023-04-03T00:51:25;50.93;;;27.77;;
10651;SDS011;5374;42.742;23.266;2023-04-03T00:54:14;19.50;;;10.93;;
10651;SDS011;5374;42.742;23.266;2023-04-03T00:57:02;26.00;;;13.90;;
10651;SDS011;5374;42.742;23.266;2023-04-03T00:59:52;21.70;;;12.27;;
10651;SDS011;5374;42.742;23.266;2023-04-03T01:02:44;22.37;;;14.13;;
10651;SDS011;5374;42.742;23.266;2023-04-03T01:05:31;20.97;;;12.17;;
10651;SDS011;5374;42.742;23.266;2023-04-03T01:08:18;24.77;;;14.53;;
10651;SDS011;5374;42.742;23.266;2023-04-03T01:11:07;39.57;;;26.60;;
10651;SDS011;5374;42.742;23.266;2023-04-03T01:13:54;91.70;;;69.37;;
10651;SDS011;5374;42.742;23.266;2023-04-03T01:16:41;98.13;;;71.63;;
10651;SDS011;5374;42.742;23.266;2023-04-03T01:19:28;92.43;;;58.87;;
10651;SDS011;5374;42.742;23.266;2023-04-03T01:22:17;78.77;;;48.87;;
10651;SDS011;5374;42.742;23.266;2023-04-03T01:25:07;42.40;;;27.87;;
10651;SDS011;5374;42.742;23.266;2023-04-03T01:27:55;20.67;;;14.30;;
10651;SDS011;5374;42.742;23.266;2023-04-03T01:30:44;13.60;;;8.90;;
10651;SDS011;5374;42.742;23.266;2023-04-03T01:33:37;9.37;;;6.90;;
10651;SDS011;5374;42.742;23.266;2023-04-03T01:36:25;13.07;;;6.90;;
10651;SDS011;5374;42.742;23.266;2023-04-03T01:39:14;8.70;;;6.77;;
10651;SDS011;5374;42.742;23.266;2023-04-03T01:42:01;10.90;;;6.60;;
10651;SDS011;5374;42.742;23.266;2023-04-03T01:44:49;34.53;;;20.77;;
10651;SDS011;5374;42.742;23.266;2023-04-03T01:47:36;155.20;;;82.63;;
10651;SDS011;5374;42.742;23.266;2023-04-03T01:50:26;99.57;;;56.20;;
10651;SDS011;5374;42.742;23.266;2023-04-03T01:53:13;93.10;;;56.17;;
10651;SDS011;5374;42.742;23.266;2023-04-03T01:56:01;77.73;;;48.37;;
10651;SDS011;5374;42.742;23.266;2023-04-03T01:58:48;66.40;;;44.93;;
10651;SDS011;5374;42.742;23.266;2023-04-03T02:01:35;42.77;;;30.70;;
10651;SDS011;5374;42.742;23.266;2023-04-03T02:04:22;33.60;;;24.53;;
10651;SDS011;5374;42.742;23.266;2023-04-03T02:07:11;19.47;;;14.70;;
10651;SDS011;5374;42.742;23.266;2023-04-03T02:10:01;14.77;;;9.83;;
10651;SDS011;5374;42.742;23.266;2023-04-03T02:12:48;9.33;;;6.83;;
10651;SDS011;5374;42.742;23.266;2023-04-03T02:15:37;5.90;;;4.60;;
10651;SDS011;5374;42.742;23.266;2023-04-03T02:18:24;6.47;;;4.97;;
10651;SDS011;5374;42.742;23.266;2023-04-03T02:21:11;8.97;;;5.20;;
10651;SDS011;5374;42.742;23.266;2023-04-03T02:24:00;9.83;;;5.27;;
10651;SDS011;5374;42.742;23.266;2023-04-03T02:26:49;7.53;;;4.40;;
10651;SDS011;5374;42.742;23.266;2023-04-03T02:29:36;6.60;;;4.47;;
10651;SDS011;5374;42.742;23.266;2023-04-03T02:32:23;9.70;;;5.10;;
10651;SDS011;5374;42.742;23.266;2023-04-03T02:35:10;8.37;;;5.27;;
10651;SDS011;5374;42.742;23.266;2023-04-03T02:37:58;8.23;;;5.40;;
10651;SDS011;5374;42.742;23.266;2023-04-03T02:40:46;10.40;;;6.83;;
10651;SDS011;5374;42.742;23.266;2023-04-03T02:43:34;8.03;;;6.00;;
10651;SDS011;5374;42.742;23.266;2023-04-03T02:46:21;6.57;;;5.20;;
10651;SDS011;5374;42.742;23.266;2023-04-03T02:49:08;8.33;;;5.20;;
10651;SDS011;5374;42.742;23.266;2023-04-03T02:51:55;10.67;;;7.27;;
10651;SDS011;5374;42.742;23.266;2023-04-03T02:54:42;8.33;;;6.57;;
10651;SDS011;5374;42.742;23.266;2023-04-03T02:57:31;8.73;;;6.53;;
10651;SDS011;5374;42.742;23.266;2023-04-03T03:00:18;9.63;;;5.70;;
10651;SDS011;5374;42.742;23.266;2023-04-03T03:03:06;7.47;;;5.90;;
10651;SDS011;5374;42.742;23.266;2023-04-03T03:06:00;7.37;;;5.23;;
10651;SDS011;5374;42.742;23.266;2023-04-03T03:08:49;10.47;;;5.80;;
10651;SDS011;5374;42.742;23.266;2023-04-03T03:11:36;18.37;;;9.13;;
10651;SDS011;5374;42.742;23.266;2023-04-03T03:14:24;15.17;;;10.40;;
10651;SDS011;5374;42.742;23.266;2023-04-03T03:17:11;13.17;;;8.60;;
10651;SDS011;5374;42.742;23.266;2023-04-03T03:20:01;13.87;;;8.97;;
10651;SDS011;5374;42.742;23.266;2023-04-03T03:22:49;16.43;;;11.23;;
10651;SDS011;5374;42.742;23.266;2023-04-03T03:25:37;21.63;;;13.93;;
10651;SDS011;5374;42.742;23.266;2023-04-03T03:28:25;16.80;;;12.10;;
10651;SDS011;5374;42.742;23.266;2023-04-03T03:31:16;21.17;;;14.50;;
10651;SDS011;5374;42.742;23.266;2023-04-03T03:34:04;23.27;;;15.40;;
10651;SDS011;5374;42.742;23.266;2023-04-03T03:36:51;23.97;;;15.80;;
10651;SDS011;5374;42.742;23.266;2023-04-03T03:39:38;39.97;;;19.57;;
10651;SDS011;5374;42.742;23.266;2023-04-03T03:42:26;33.67;;;18.77;;
10651;SDS011;5374;42.742;23.266;2023-04-03T03:45:13;29.33;;;15.37;;
10651;SDS011;5374;42.742;23.266;2023-04-03T03:48:03;29.10;;;13.77;;
10651;SDS011;5374;42.742;23.266;2023-04-03T03:50:50;26.73;;;12.23;;
10651;SDS011;5374;42.742;23.266;2023-04-03T03:53:37;22.77;;;11.77;;
10651;SDS011;5374;42.742;23.266;2023-04-03T03:56:24;23.50;;;10.60;;
10651;SDS011;5374;42.742;23.266;2023-04-03T03:59:12;26.10;;;8.37;;
10651;SDS011;5374;42.742;23.266;2023-04-03T04:01:59;26.97;;;7.73;;
10651;SDS011;5374;42.742;23.266;2023-04-03T04:04:48;20.97;;;7.30;;
10651;SDS011;5374;42.742;23.266;2023-04-03T04:07:35;16.50;;;7.00;;
10651;SDS011;5374;42.742;23.266;2023-04-03T04:10:22;40.37;;;9.00;;
10651;SDS011;5374;42.742;23.266;2023-04-03T04:13:09;32.13;;;8.20;;
10651;SDS011;5374;42.742;23.266;2023-04-03T04:15:56;29.23;;;9.20;;
10651;SDS011;5374;42.742;23.266;2023-04-03T04:18:43;32.13;;;9.37;;
10651;SDS011;5374;42.742;23.266;2023-04-03T04:21:32;33.50;;;8.30;;
10651;SDS011;5374;42.742;23.266;2023-04-03T04:24:19;36.50;;;7.40;;
10651;SDS011;5374;42.742;23.266;2023-04-03T04:27:08;23.83;;;7.17;;
10651;SDS011;5374;42.742;23.266;2023-04-03T04:29:55;28.93;;;9.00;;
10651;SDS011;5374;42.742;23.266;2023-04-03T04:32:43;25.90;;;8.40;;
10651;SDS011;5374;42.742;23.266;2023-04-03T04:35:30;16.30;;;10.07;;
10651;SDS011;5374;42.742;23.266;2023-04-03T04:38:18;26.03;;;12.50;;
10651;SDS011;5374;42.742;23.266;2023-04-03T04:41:06;23.13;;;14.53;;
10651;SDS011;5374;42.742;23.266;2023-04-03T04:43:53;26.23;;;14.50;;
10651;SDS011;5374;42.742;23.266;2023-04-03T04:46:41;21.27;;;9.50;;
10651;SDS011;5374;42.742;23.266;2023-04-03T04:49:29;18.77;;;8.03;;
10651;SDS011;5374;42.742;23.266;2023-04-03T04:52:17;26.50;;;8.50;;
10651;SDS011;5374;42.742;23.266;2023-04-03T04:55:06;15.97;;;7.73;;
10651;SDS011;5374;42.742;23.266;2023-04-03T04:57:54;23.50;;;8.10;;
10651;SDS011;5374;42.742;23.266;2023-04-03T05:00:41;20.20;;;7.27;;
10651;SDS011;5374;42.742;23.266;2023-04-03T05:03:29;19.13;;;8.60;;
10651;SDS011;5374;42.742;23.266;2023-04-03T05:06:16;17.37;;;8.23;;
10651;SDS011;5374;42.742;23.266;2023-04-03T05:09:03;17.93;;;7.07;;
10651;SDS011;5374;42.742;23.266;2023-04-03T05:11:52;25.50;;;7.27;;
10651;SDS011;5374;42.742;23.266;2023-04-03T05:14:40;20.17;;;7.83;;
10651;SDS011;5374;42.742;23.266;2023-04-03T05:17:28;22.17;;;7.83;;
10651;SDS011;5374;42.742;23.266;2023-04-03T05:20:15;18.33;;;8.30;;
10651;SDS011;5374;42.742;23.266;2023-04-03T05:23:02;32.63;;;8.37;;
10651;SDS011;5374;42.742;23.266;2023-04-03T05:25:49;45.50;;;11.30;;
10651;SDS011;5374;42.742;23.266;2023-04-03T05:28:38;26.80;;;9.20;;
10651;SDS011;5374;42.742;23.266;2023-04-03T05:31:25;22.27;;;10.03;;
10651;SDS011;5374;42.742;23.266;2023-04-03T05:34:14;23.83;;;10.13;;
10651;SDS011;5374;42.742;23.266;2023-04-03T05:37:01;25.67;;;10.50;;
10651;SDS011;5374;42.742;23.266;2023-04-03T05:39:50;15.17;;;9.93;;
10651;SDS011;5374;42.742;23.266;2023-04-03T05:42:37;13.17;;;9.40;;
10651;SDS011;5374;42.742;23.266;2023-04-03T05:45:26;14.43;;;9.73;;
10651;SDS011;5374;42.742;23.266;2023-04-03T05:48:13;24.00;;;9.10;;
10651;SDS011;5374;42.742;23.266;2023-04-03T05:51:00;25.83;;;9.40;;
10651;SDS011;5374;42.742;23.266;2023-04-03T05:53:47;21.73;;;11.03;;
10651;SDS011;5374;42.742;23.266;2023-04-03T05:56:38;24.53;;;11.33;;
10651;SDS011;5374;42.742;23.266;2023-04-03T05:59:25;41.20;;;23.33;;
10651;SDS011;5374;42.742;23.266;2023-04-03T06:02:15;35.87;;;18.43;;
10651;SDS011;5374;42.742;23.266;2023-04-03T06:05:03;22.83;;;11.67;;
10651;SDS011;5374;42.742;23.266;2023-04-03T06:07:51;32.37;;;10.43;;
10651;SDS011;5374;42.742;23.266;2023-04-03T06:10:38;14.47;;;7.57;;
10651;SDS011;5374;42.742;23.266;2023-04-03T06:13:25;10.03;;;7.00;;
10651;SDS011;5374;42.742;23.266;2023-04-03T06:16:18;11.47;;;7.70;;
10651;SDS011;5374;42.742;23.266;2023-04-03T06:19:07;12.67;;;7.00;;
10651;SDS011;5374;42.742;23.266;2023-04-03T06:21:55;9.73;;;6.40;;
10651;SDS011;5374;42.742;23.266;2023-04-03T06:24:42;20.70;;;6.40;;
10651;SDS011;5374;42.742;23.266;2023-04-03T06:27:29;7.90;;;6.20;;
10651;SDS011;5374;42.742;23.266;2023-04-03T06:30:16;11.60;;;7.40;;
10651;SDS011;5374;42.742;23.266;2023-04-03T06:33:03;26.00;;;8.53;;
10651;SDS011;5374;42.742;23.266;2023-04-03T06:35:56;11.80;;;8.90;;
10651;SDS011;5374;42.742;23.266;2023-04-03T06:38:44;20.97;;;10.73;;
10651;SDS011;5374;42.742;23.266;2023-04-03T06:41:31;17.27;;;11.40;;
10651;SDS011;5374;42.742;23.266;2023-04-03T06:44:18;17.87;;;10.77;;
10651;SDS011;5374;42.742;23.266;2023-04-03T06:47:05;13.20;;;10.43;;
10651;SDS011;5374;42.742;23.266;2023-04-03T06:49:53;13.63;;;10.00;;
10651;SDS011;5374;42.742;23.266;2023-04-03T06:52:43;12.10;;;9.37;;
10651;SDS011;5374;42.742;23.266;2023-04-03T06:55:30;13.93;;;9.10;;
10651;SDS011;5374;42.742;23.266;2023-04-03T06:58:17;15.70;;;8.87;;
10651;SDS011;5374;42.742;23.266;2023-04-03T07:01:04;14.43;;;8.80;;
10651;SDS011;5374;42.742;23.266;2023-04-03T07:03:52;14.37;;;9.57;;
10651;SDS011;5374;42.742;23.266;2023-04-03T07:06:39;15.07;;;8.80;;
10651;SDS011;5374;42.742;23.266;2023-04-03T07:09:28;12.53;;;7.93;;
10651;SDS011;5374;42.742;23.266;2023-04-03T07:12:15;10.23;;;5.90;;
10651;SDS011;5374;42.742;23.266;2023-04-03T07:15:03;9.13;;;6.20;;
10651;SDS011;5374;42.742;23.266;2023-04-03T07:17:50;6.53;;;5.77;;
10651;SDS011;5374;42.742;23.266;2023-04-03T07:20:38;12.33;;;6.33;;
10651;SDS011;5374;42.742;23.266;2023-04-03T07:23:25;11.83;;;6.70;;
10651;SDS011;5374;42.742;23.266;2023-04-03T07:26:14;13.73;;;7.13;;
10651;SDS011;5374;42.742;23.266;2023-04-03T07:29:01;15.00;;;7.53;;
10651;SDS011;5374;42.742;23.266;2023-04-03T07:31:49;17.77;;;8.10;;
10651;SDS011;5374;42.742;23.266;2023-04-03T07:34:36;10.67;;;6.90;;
10651;SDS011;5374;42.742;23.266;2023-04-03T07:37:23;13.27;;;7.70;;
10651;SDS011;5374;42.742;23.266;2023-04-03T07:40:10;17.67;;;7.37;;
10651;SDS011;5374;42.742;23.266;2023-04-03T07:42:59;19.33;;;6.80;;
10651;SDS011;5374;42.742;23.266;2023-04-03T07:45:46;12.37;;;7.50;;
10651;SDS011;5374;42.742;23.266;2023-04-03T07:48:36;13.47;;;8.40;;
10651;SDS011;5374;42.742;23.266;2023-04-03T07:51:23;12.90;;;8.40;;
10651;SDS011;5374;42.742;23.266;2023-04-03T07:54:11;11.47;;;7.67;;
10651;SDS011;5374;42.742;23.266;2023-04-03T07:56:58;9.33;;;6.13;;
10651;SDS011;5374;42.742;23.266;2023-04-03T07:59:47;10.07;;;6.70;;
10651;SDS011;5374;42.742;23.266;2023-04-03T08:02:34;14.83;;;6.97;;
10651;SDS011;5374;42.742;23.266;2023-04-03T08:05:21;10.50;;;6.40;;
10651;SDS011;5374;42.742;23.266;2023-04-03T08:08:09;13.87;;;6.90;;
10651;SDS011;5374;42.742;23.266;2023-04-03T08:10:57;13.73;;;6.60;;
10651;SDS011;5374;42.742;23.266;2023-04-03T08:13:46;10.30;;;6.07;;
10651;SDS011;5374;42.742;23.266;2023-04-03T08:16:34;9.20;;;5.40;;
10651;SDS011;5374;42.742;23.266;2023-04-03T08:19:22;6.13;;;4.70;;
10651;SDS011;5374;42.742;23.266;2023-04-03T08:22:09;6.17;;;5.30;;
10651;SDS011;5374;42.742;23.266;2023-04-03T08:24:56;12.07;;;6.03;;
10651;SDS011;5374;42.742;23.266;2023-04-03T08:27:43;9.37;;;6.07;;
10651;SDS011;5374;42.742;23.266;2023-04-03T08:30:30;8.80;;;6.53;;
10651;SDS011;5374;42.742;23.266;2023-04-03T08:33:19;16.90;;;8.70;;
10651;SDS011;5374;42.742;23.266;2023-04-03T08:36:06;10.33;;;7.33;;
10651;SDS011;5374;42.742;23.266;2023-04-03T08:39:02;11.63;;;7.93;;
10651;SDS011;5374;42.742;23.266;2023-04-03T08:41:49;12.77;;;8.33;;
10651;SDS011;5374;42.742;23.266;2023-04-03T08:44:38;10.93;;;7.63;;
10651;SDS011;5374;42.742;23.266;2023-04-03T08:47:36;15.07;;;7.27;;
10651;SDS011;5374;42.742;23.266;2023-04-03T08:50:28;16.57;;;7.13;;
10651;SDS011;5374;42.742;23.266;2023-04-03T08:53:20;10.43;;;7.37;;
10651;SDS011;5374;42.742;23.266;2023-04-03T08:56:09;10.60;;;6.43;;
10651;SDS011;5374;42.742;23.266;2023-04-03T08:58:59;8.87;;;6.03;;
10651;SDS011;5374;42.742;23.266;2023-04-03T09:01:50;8.77;;;6.30;;
10651;SDS011;5374;42.742;23.266;2023-04-03T09:04:38;16.60;;;6.07;;
10651;SDS011;5374;42.742;23.266;2023-04-03T09:07:30;15.70;;;6.43;;
10651;SDS011;5374;42.742;23.266;2023-04-03T09:10:27;10.47;;;6.50;;
10651;SDS011;5374;42.742;23.266;2023-04-03T09:13:20;15.27;;;6.57;;
10651;SDS011;5374;42.742;23.266;2023-04-03T09:16:17;11.40;;;6.53;;
10651;SDS011;5374;42.742;23.266;2023-04-03T09:19:14;12.60;;;6.53;;
10651;SDS011;5374;42.742;23.266;2023-04-03T09:22:11;9.57;;;7.50;;
10651;SDS011;5374;42.742;23.266;2023-04-03T09:25:05;11.23;;;7.67;;
10651;SDS011;5374;42.742;23.266;2023-04-03T09:27:57;14.90;;;8.63;;
10651;SDS011;5374;42.742;23.266;2023-04-03T09:30:45;16.50;;;9.33;;
10651;SDS011;5374;42.742;23.266;2023-04-03T09:33:32;18.03;;;10.50;;
10651;SDS011;5374;42.742;23.266;2023-04-03T09:39:48;17.57;;;10.60;;
10651;SDS011;5374;42.742;23.266;2023-04-03T09:42:38;31.60;;;15.00;;
10651;SDS011;5374;42.742;23.266;2023-04-03T09:45:29;22.17;;;13.77;;
10651;SDS011;5374;42.742;23.266;2023-04-03T09:48:17;13.37;;;10.53;;
10651;SDS011;5374;42.742;23.266;2023-04-03T09:51:08;16.00;;;10.63;;
10651;SDS011;5374;42.742;23.266;2023-04-03T09:54:04;13.10;;;7.80;;
10651;SDS011;5374;42.742;23.266;2023-04-03T09:57:13;12.80;;;5.90;;
10651;SDS011;5374;42.742;23.266;2023-04-03T10:00:02;10.13;;;5.00;;
10651;SDS011;5374;42.742;23.266;2023-04-03T10:02:51;10.53;;;5.87;;
10651;SDS011;5374;42.742;23.266;2023-04-03T10:05:41;10.63;;;6.73;;
10651;SDS011;5374;42.742;23.266;2023-04-03T10:08:29;12.83;;;7.60;;
10651;SDS011;5374;42.742;23.266;2023-04-03T10:11:17;36.00;;;32.17;;
10651;SDS011;5374;42.742;23.266;2023-04-03T10:14:15;8.53;;;6.33;;
10651;SDS011;5374;42.742;23.266;2023-04-03T10:17:09;10.40;;;6.23;;
10651;SDS011;5374;42.742;23.266;2023-04-03T10:20:07;14.50;;;6.70;;
10651;SDS011;5374;42.742;23.266;2023-04-03T10:23:15;10.90;;;7.13;;
10651;SDS011;5374;42.742;23.266;2023-04-03T10:26:08;12.73;;;8.07;;
10651;SDS011;5374;42.742;23.266;2023-04-03T10:29:05;12.90;;;9.00;;
10651;SDS011;5374;42.742;23.266;2023-04-03T10:32:03;17.90;;;9.23;;
10651;SDS011;5374;42.742;23.266;2023-04-03T10:35:14;18.30;;;9.90;;
10651;SDS011;5374;42.742;23.266;2023-04-03T10:38:08;16.87;;;9.83;;
10651;SDS011;5374;42.742;23.266;2023-04-03T10:41:04;13.87;;;9.80;;
10651;SDS011;5374;42.742;23.266;2023-04-03T10:44:02;20.33;;;9.40;;
10651;SDS011;5374;42.742;23.266;2023-04-03T10:47:01;12.70;;;7.50;;
10651;SDS011;5374;42.742;23.266;2023-04-03T10:49:54;20.00;;;8.60;;
10651;SDS011;5374;42.742;23.266;2023-04-03T10:52:54;10.70;;;7.17;;
10651;SDS011;5374;42.742;23.266;2023-04-03T10:55:50;11.57;;;6.53;;
10651;SDS011;5374;42.742;23.266;2023-04-03T10:58:44;10.17;;;6.57;;
10651;SDS011;5374;42.742;23.266;2023-04-03T11:01:38;8.63;;;5.23;;
10651;SDS011;5374;42.742;23.266;2023-04-03T11:04:31;29.67;;;6.03;;
10651;SDS011;5374;42.742;23.266;2023-04-03T11:07:22;15.57;;;5.67;;
10651;SDS011;5374;42.742;23.266;2023-04-03T11:10:15;15.70;;;5.77;;
10651;SDS011;5374;42.742;23.266;2023-04-03T11:13:11;8.57;;;4.70;;
10651;SDS011;5374;42.742;23.266;2023-04-03T11:16:01;10.57;;;4.40;;
10651;SDS011;5374;42.742;23.266;2023-04-03T11:18:52;14.67;;;4.97;;
10651;SDS011;5374;42.742;23.266;2023-04-03T11:21:44;9.20;;;4.83;;
10651;SDS011;5374;42.742;23.266;2023-04-03T11:24:39;8.50;;;4.73;;
10651;SDS011;5374;42.742;23.266;2023-04-03T11:27:33;13.03;;;5.87;;
10651;SDS011;5374;42.742;23.266;2023-04-03T11:30:28;8.43;;;6.00;;
10651;SDS011;5374;42.742;23.266;2023-04-03T11:33:24;8.57;;;5.93;;
10651;SDS011;5374;42.742;23.266;2023-04-03T11:36:21;8.27;;;5.63;;
10651;SDS011;5374;42.742;23.266;2023-04-03T11:39:15;8.77;;;6.40;;
10651;SDS011;5374;42.742;23.266;2023-04-03T11:42:13;6.83;;;5.13;;
10651;SDS011;5374;42.742;23.266;2023-04-03T11:45:22;6.57;;;4.83;;
10651;SDS011;5374;42.742;23.266;2023-04-03T11:51:38;7.57;;;5.73;;
10651;SDS011;5374;42.742;23.266;2023-04-03T11:54:48;12.63;;;9.87;;
10651;SDS011;5374;42.742;23.266;2023-04-03T11:57:46;8.77;;;5.40;;
10651;SDS011;5374;42.742;23.266;2023-04-03T12:00:54;17.13;;;12.43;;
10651;SDS011;5374;42.742;23.266;2023-04-03T12:10:18;7.87;;;6.17;;
10651;SDS011;5374;42.742;23.266;2023-04-03T12:13:12;9.43;;;7.10;;
10651;SDS011;5374;42.742;23.266;2023-04-03T12:16:03;8.17;;;6.17;;
10651;SDS011;5374;42.742;23.266;2023-04-03T12:18:56;12.60;;;9.17;;
10651;SDS011;5374;42.742;23.266;2023-04-03T12:25:00;9.57;;;7.70;;
10651;SDS011;5374;42.742;23.266;2023-04-03T12:28:21;10.33;;;8.50;;
10651;SDS011;5374;42.742;23.266;2023-04-03T12:31:10;8.23;;;7.43;;
10651;SDS011;5374;42.742;23.266;2023-04-03T12:34:01;7.70;;;6.73;;
10651;SDS011;5374;42.742;23.266;2023-04-03T12:37:00;9.13;;;6.60;;
10651;SDS011;5374;42.742;23.266;2023-04-03T12:39:52;8.97;;;6.77;;
10651;SDS011;5374;42.742;23.266;2023-04-03T12:42:55;9.27;;;5.30;;
10651;SDS011;5374;42.742;23.266;2023-04-03T12:46:02;8.70;;;5.43;;
10651;SDS011;5374;42.742;23.266;2023-04-03T12:48:53;6.07;;;5.20;;
10651;SDS011;5374;42.742;23.266;2023-04-03T12:51:42;4.87;;;4.37;;
10651;SDS011;5374;42.742;23.266;2023-04-03T12:54:32;6.43;;;4.20;;
10651;SDS011;5374;42.742;23.266;2023-04-03T12:57:23;5.03;;;4.57;;
10651;SDS011;5374;42.742;23.266;2023-04-03T13:00:28;4.83;;;4.33;;
10651;SDS011;5374;42.742;23.266;2023-04-03T13:03:21;5.23;;;4.63;;
10651;SDS011;5374;42.742;23.266;2023-04-03T13:06:14;6.00;;;5.40;;
10651;SDS011;5374;42.742;23.266;2023-04-03T13:09:06;7.27;;;5.80;;
10651;SDS011;5374;42.742;23.266;2023-04-03T13:12:10;7.63;;;6.10;;
10651;SDS011;5374;42.742;23.266;2023-04-03T13:15:00;7.57;;;6.63;;
10651;SDS011;5374;42.742;23.266;2023-04-03T13:17:49;7.87;;;7.07;;
10651;SDS011;5374;42.742;23.266;2023-04-03T13:20:38;9.03;;;7.67;;
10651;SDS011;5374;42.742;23.266;2023-04-03T13:23:26;9.97;;;7.63;;
10651;SDS011;5374;42.742;23.266;2023-04-03T13:26:15;12.97;;;8.67;;
10651;SDS011;5374;42.742;23.266;2023-04-03T13:29:04;9.73;;;7.70;;
10651;SDS011;5374;42.742;23.266;2023-04-03T13:31:53;12.00;;;8.47;;
10651;SDS011;5374;42.742;23.266;2023-04-03T13:34:43;10.57;;;8.27;;
10651;SDS011;5374;42.742;23.266;2023-04-03T13:37:31;9.93;;;7.13;;
10651;SDS011;5374;42.742;23.266;2023-04-03T13:40:21;11.07;;;8.07;;
10651;SDS011;5374;42.742;23.266;2023-04-03T13:43:16;10.10;;;7.60;;
10651;SDS011;5374;42.742;23.266;2023-04-03T13:46:20;14.80;;;11.53;;
10651;SDS011;5374;42.742;23.266;2023-04-03T13:49:18;8.27;;;6.27;;
10651;SDS011;5374;42.742;23.266;2023-04-03T13:52:22;11.33;;;9.00;;
10651;SDS011;5374;42.742;23.266;2023-04-03T13:55:17;8.53;;;7.63;;
10651;SDS011;5374;42.742;23.266;2023-04-03T13:58:21;8.83;;;7.10;;
10651;SDS011;5374;42.742;23.266;2023-04-03T14:01:14;9.20;;;6.27;;
10651;SDS011;5374;42.742;23.266;2023-04-03T14:04:11;7.73;;;6.60;;
10651;SDS011;5374;42.742;23.266;2023-04-03T14:07:04;7.10;;;6.00;;
10651;SDS011;5374;42.742;23.266;2023-04-03T14:09:52;7.57;;;6.40;;
10651;SDS011;5374;42.742;23.266;2023-04-03T14:12:39;8.83;;;6.37;;
10651;SDS011;5374;42.742;23.266;2023-04-03T14:15:29;6.90;;;6.20;;
10651;SDS011;5374;42.742;23.266;2023-04-03T14:18:18;8.30;;;6.33;;
10651;SDS011;5374;42.742;23.266;2023-04-03T14:21:06;6.73;;;5.93;;
10651;SDS011;5374;42.742;23.266;2023-04-03T14:23:53;5.47;;;4.70;;
10651;SDS011;5374;42.742;23.266;2023-04-03T14:26:41;6.87;;;5.17;;
10651;SDS011;5374;42.742;23.266;2023-04-03T14:29:29;8.33;;;6.53;;
10651;SDS011;5374;42.742;23.266;2023-04-03T14:32:19;4.83;;;4.30;;
10651;SDS011;5374;42.742;23.266;2023-04-03T14:35:08;9.00;;;7.90;;
10651;SDS011;5374;42.742;23.266;2023-04-03T14:37:55;8.63;;;6.60;;
10651;SDS011;5374;42.742;23.266;2023-04-03T14:40:42;7.83;;;6.13;;
10651;SDS011;5374;42.742;23.266;2023-04-03T14:43:29;6.87;;;6.17;;
10651;SDS011;5374;42.742;23.266;2023-04-03T14:46:18;7.83;;;5.93;;
10651;SDS011;5374;42.742;23.266;2023-04-03T14:49:11;9.17;;;7.70;;
10651;SDS011;5374;42.742;23.266;2023-04-03T14:52:02;31.23;;;24.63;;
10651;SDS011;5374;42.742;23.266;2023-04-03T14:54:56;35.87;;;27.60;;
10651;SDS011;5374;42.742;23.266;2023-04-03T14:57:43;8.13;;;7.37;;
10651;SDS011;5374;42.742;23.266;2023-04-03T15:00:31;9.60;;;8.03;;
10651;SDS011;5374;42.742;23.266;2023-04-03T15:03:19;11.77;;;10.13;;
10651;SDS011;5374;42.742;23.266;2023-04-03T15:06:08;9.80;;;8.43;;
10651;SDS011;5374;42.742;23.266;2023-04-03T15:08:56;9.97;;;8.90;;
10651;SDS011;5374;42.742;23.266;2023-04-03T15:11:45;6.83;;;5.70;;
10651;SDS011;5374;42.742;23.266;2023-04-03T15:14:32;6.43;;;5.40;;
10651;SDS011;5374;42.742;23.266;2023-04-03T15:17:21;7.07;;;5.33;;
10651;SDS011;5374;42.742;23.266;2023-04-03T15:20:12;6.73;;;5.60;;
10651;SDS011;5374;42.742;23.266;2023-04-03T15:23:00;6.40;;;5.67;;
10651;SDS011;5374;42.742;23.266;2023-04-03T15:25:48;7.30;;;5.43;;
10651;SDS011;5374;42.742;23.266;2023-04-03T15:28:37;9.50;;;8.60;;
10651;SDS011;5374;42.742;23.266;2023-04-03T15:31:26;7.03;;;6.23;;
10651;SDS011;5374;42.742;23.266;2023-04-03T15:34:14;8.27;;;6.93;;
10651;SDS011;5374;42.742;23.266;2023-04-03T15:37:01;8.57;;;6.83;;
10651;SDS011;5374;42.742;23.266;2023-04-03T15:39:48;8.37;;;6.30;;
10651;SDS011;5374;42.742;23.266;2023-04-03T15:42:36;7.00;;;6.30;;
10651;SDS011;5374;42.742;23.266;2023-04-03T15:45:24;6.73;;;6.03;;
10651;SDS011;5374;42.742;23.266;2023-04-03T15:48:16;9.17;;;7.40;;
10651;SDS011;5374;42.742;23.266;2023-04-03T15:51:03;11.00;;;8.10;;
10651;SDS011;5374;42.742;23.266;2023-04-03T15:53:51;9.40;;;7.87;;
10651;SDS011;5374;42.742;23.266;2023-04-03T15:56:38;9.87;;;7.67;;
10651;SDS011;5374;42.742;23.266;2023-04-03T15:59:26;8.77;;;7.87;;
10651;SDS011;5374;42.742;23.266;2023-04-03T16:02:15;9.63;;;7.80;;
10651;SDS011;5374;42.742;23.266;2023-04-03T16:05:03;9.50;;;8.57;;
10651;SDS011;5374;42.742;23.266;2023-04-03T16:07:50;11.57;;;8.40;;
10651;SDS011;5374;42.742;23.266;2023-04-03T16:10:39;9.33;;;8.33;;
10651;SDS011;5374;42.742;23.266;2023-04-03T16:13:26;8.80;;;7.70;;
10651;SDS011;5374;42.742;23.266;2023-04-03T16:16:13;6.20;;;5.57;;
10651;SDS011;5374;42.742;23.266;2023-04-03T16:19:02;8.50;;;6.47;;
10651;SDS011;5374;42.742;23.266;2023-04-03T16:21:50;5.77;;;4.70;;
10651;SDS011;5374;42.742;23.266;2023-04-03T16:24:37;6.67;;;5.67;;
10651;SDS011;5374;42.742;23.266;2023-04-03T16:27:24;4.20;;;3.17;;
10651;SDS011;5374;42.742;23.266;2023-04-03T16:30:13;4.60;;;3.80;;
10651;SDS011;5374;42.742;23.266;2023-04-03T16:33:01;6.00;;;3.10;;
10651;SDS011;5374;42.742;23.266;2023-04-03T16:35:50;2.80;;;2.53;;
10651;SDS011;5374;42.742;23.266;2023-04-03T16:38:38;3.93;;;3.23;;
10651;SDS011;5374;42.742;23.266;2023-04-03T16:41:25;4.37;;;3.20;;
10651;SDS011;5374;42.742;23.266;2023-04-03T16:44:12;6.43;;;4.60;;
10651;SDS011;5374;42.742;23.266;2023-04-03T16:46:59;8.30;;;5.50;;
10651;SDS011;5374;42.742;23.266;2023-04-03T16:49:47;7.33;;;5.57;;
10651;SDS011;5374;42.742;23.266;2023-04-03T16:52:35;12.10;;;7.00;;
10651;SDS011;5374;42.742;23.266;2023-04-03T16:55:23;15.47;;;8.83;;
10651;SDS011;5374;42.742;23.266;2023-04-03T16:58:10;15.57;;;10.83;;
10651;SDS011;5374;42.742;23.266;2023-04-03T17:00:57;14.93;;;11.53;;
10651;SDS011;5374;42.742;23.266;2023-04-03T17:03:44;17.90;;;13.23;;
10651;SDS011;5374;42.742;23.266;2023-04-03T17:06:32;16.33;;;11.77;;